Time;durP1;ratioP1;P1;durP2;ratioP2;P2;SDS_P1;SDS_P2;PMS_P1;PMS_P2;Temp;Humidity;BMP_temperature;BMP_pressure;BME280_temperature;BME280_humidity;BME280_pressure;Samples;Min_cycle;Max_cycle;Signal;HPM_P1;HPM_P2
2021/05/02 00:01:35;;;;;;;7.88;4.43;;;9.50;77.20;;;;;;4954184;28;20027;-75
2021/05/02 00:04:03;;;;;;;7.50;3.47;;;9.50;77.30;;;;;;4970495;28;20050;-75
2021/05/02 00:06:30;;;;;;;8.88;3.90;;;9.40;77.40;;;;;;4953993;29;20023;-75
2021/05/02 00:08:55;;;;;;;4.85;3.10;;;9.40;77.60;;;;;;4955915;28;20058;-74
2021/05/02 00:11:21;;;;;;;7.90;3.95;;;9.40;77.70;;;;;;4953868;28;20082;-76
2021/05/02 00:13:47;;;;;;;8.07;4.15;;;9.30;77.80;;;;;;4954433;29;20023;-75
2021/05/02 00:16:12;;;;;;;7.45;3.70;;;9.30;77.90;;;;;;4953967;29;20027;-75
2021/05/02 00:18:39;;;;;;;8.80;3.67;;;9.30;78.00;;;;;;4953880;28;20035;-75
2021/05/02 00:21:10;;;;;;;7.85;3.45;;;9.30;78.20;;;;;;4955843;28;20067;-75
2021/05/02 00:23:36;;;;;;;;;;;9.20;78.40;;;;;;4955111;28;20035;-75
2021/05/02 00:26:04;;;;;;;9.60;3.53;;;9.10;78.50;;;;;;4955663;28;19938;-75
2021/05/02 00:28:31;;;;;;;8.93;4.05;;;9.10;78.60;;;;;;4954930;28;20027;-75
2021/05/02 00:30:58;;;;;;;6.80;2.83;;;9.10;78.50;;;;;;4955241;28;20388;-75
2021/05/02 00:33:24;;;;;;;10.00;4.68;;;9.10;78.40;;;;;;4955068;28;20089;-74
2021/05/02 00:35:51;;;;;;;8.15;3.10;;;9.10;78.60;;;;;;4953501;28;20519;-75
2021/05/02 00:38:17;;;;;;;10.98;3.60;;;9.10;78.60;;;;;;4955330;28;20038;-75
2021/05/02 00:40:43;;;;;;;7.53;4.00;;;9.10;78.70;;;;;;4953330;28;20027;-75
2021/05/02 00:43:12;;;;;;;7.50;3.72;;;9.10;78.90;;;;;;4955210;28;20024;-75
2021/05/02 00:45:48;;;;;;;10.10;4.20;;;9.10;78.90;;;;;;4954411;28;20023;-76
2021/05/02 00:48:20;;;;;;;9.82;3.10;;;9.10;78.80;;;;;;4955431;29;20081;-75
2021/05/02 00:50:54;;;;;;;7.00;3.53;;;9.10;78.70;;;;;;4954589;28;20309;-74
2021/05/02 00:53:53;;;;;;;8.60;3.58;;;9.20;78.70;;;;;;4953885;29;20028;-75
2021/05/02 00:56:24;;;;;;;10.63;3.45;;;9.20;78.50;;;;;;4955011;29;20108;-75
2021/05/02 00:59:07;;;;;;;10.00;3.92;;;9.20;78.40;;;;;;4954462;28;20032;-75
2021/05/02 01:01:50;;;;;;;7.47;3.65;;;9.30;78.60;;;;;;4954342;28;20052;-74
2021/05/02 01:04:24;;;;;;;5.70;3.40;;;9.30;78.50;;;;;;4969780;28;20031;-75
2021/05/02 01:06:51;;;;;;;7.97;3.67;;;9.20;78.60;;;;;;4952625;29;20039;-75
2021/05/02 01:09:17;;;;;;;8.82;4.15;;;9.20;78.80;;;;;;4954756;28;20539;-75
2021/05/02 01:11:47;;;;;;;6.95;3.47;;;9.20;78.70;;;;;;4952583;28;20130;-76
2021/05/02 01:14:16;;;;;;;4.75;2.85;;;9.20;78.70;;;;;;4954740;28;20360;-75
2021/05/02 01:16:44;;;;;;;6.07;3.03;;;9.20;78.70;;;;;;4952653;29;20142;-74
2021/05/02 01:19:11;;;;;;;7.13;4.00;;;9.20;78.70;;;;;;4954545;28;20090;-74
2021/05/02 01:21:41;;;;;;;6.35;2.75;;;9.30;78.80;;;;;;4953690;28;20027;-75
2021/05/02 01:24:09;;;;;;;5.97;2.63;;;9.30;78.70;;;;;;4954550;28;20464;-75
2021/05/02 01:26:39;;;;;;;6.57;2.60;;;9.30;78.70;;;;;;4953417;28;20031;-75
2021/05/02 01:29:06;;;;;;;6.47;3.15;;;9.30;78.60;;;;;;4954799;28;20035;-74
2021/05/02 01:31:32;;;;;;;5.60;2.95;;;9.30;78.60;;;;;;4953913;28;20019;-75
2021/05/02 01:33:58;;;;;;;7.20;3.05;;;9.30;78.60;;;;;;4952986;28;20134;-75
2021/05/02 01:36:24;;;;;;;4.45;2.08;;;9.30;78.50;;;;;;4953994;28;20106;-75
2021/05/02 01:38:51;;;;;;;4.05;2.50;;;9.30;78.30;;;;;;4953613;29;20294;-75
2021/05/02 01:41:17;;;;;;;5.97;3.17;;;9.40;78.30;;;;;;4954235;28;20027;-74
2021/05/02 01:43:43;;;;;;;7.05;3.25;;;9.40;78.20;;;;;;4953597;28;20033;-75
2021/05/02 01:46:10;;;;;;;5.78;2.78;;;9.40;78.10;;;;;;4954192;28;20027;-75
2021/05/02 01:48:39;;;;;;;4.18;2.25;;;9.40;78.10;;;;;;4952319;28;20023;-75
2021/05/02 01:51:06;;;;;;;4.47;2.17;;;9.40;78.00;;;;;;4952843;28;20074;-74
2021/05/02 01:53:32;;;;;;;5.00;2.10;;;9.40;77.90;;;;;;4953514;28;20042;-74
2021/05/02 01:56:01;;;;;;;4.10;2.13;;;9.30;77.90;;;;;;4953937;29;20028;-75
2021/05/02 01:58:28;;;;;;;6.35;2.28;;;9.30;77.90;;;;;;4954035;28;20039;-76
2021/05/02 02:00:57;;;;;;;3.78;2.40;;;9.20;77.90;;;;;;4952030;28;20552;-75
2021/05/02 02:03:24;;;;;;;2.90;1.60;;;9.20;77.90;;;;;;4953969;28;20030;-75
2021/05/02 02:05:50;;;;;;;4.10;1.70;;;9.20;77.80;;;;;;4952977;28;20090;-75
2021/05/02 02:08:17;;;;;;;5.90;2.28;;;9.20;77.60;;;;;;4952729;28;20106;-76
2021/05/02 02:10:45;;;;;;;3.80;1.80;;;9.20;77.60;;;;;;4951708;29;20051;-75
2021/05/02 02:13:12;;;;;;;5.45;2.10;;;9.00;77.20;;;;;;4952314;29;20114;-75
2021/05/02 02:15:39;;;;;;;4.47;2.00;;;9.00;77.50;;;;;;4953273;28;20031;-74
2021/05/02 02:18:05;;;;;;;3.70;1.65;;;8.90;77.40;;;;;;4953725;28;20027;-75
2021/05/02 02:20:37;;;;;;;3.55;1.50;;;8.90;77.40;;;;;;4952142;29;20023;-76
2021/05/02 02:23:08;;;;;;;3.63;1.90;;;8.90;77.50;;;;;;4953816;28;20023;-74
2021/05/02 02:25:40;;;;;;;3.40;1.92;;;8.90;77.60;;;;;;4953592;28;20030;-75
2021/05/02 02:28:11;;;;;;;3.70;1.88;;;8.90;77.50;;;;;;4953633;28;20496;-75
2021/05/02 02:30:39;;;;;;;3.65;1.58;;;8.80;77.50;;;;;;4953128;28;20031;-75
2021/05/02 02:33:07;;;;;;;3.72;2.00;;;8.80;77.70;;;;;;4952422;29;20023;-75
2021/05/02 02:35:39;;;;;;;4.40;1.60;;;8.70;77.60;;;;;;4954562;28;20024;-74
2021/05/02 02:38:08;;;;;;;3.10;1.67;;;8.80;77.70;;;;;;4956293;29;20030;-74
2021/05/02 02:40:37;;;;;;;3.33;1.50;;;8.70;78.20;;;;;;4957549;28;20031;-76
2021/05/02 02:43:04;;;;;;;5.10;2.65;;;8.70;77.60;;;;;;4957457;28;20059;-75
2021/05/02 02:45:33;;;;;;;4.30;2.05;;;8.70;77.60;;;;;;4957696;28;20050;-75
2021/05/02 02:48:02;;;;;;;6.95;2.50;;;8.70;77.60;;;;;;4956573;28;20027;-75
2021/05/02 02:50:30;;;;;;;7.75;2.47;;;8.70;77.40;;;;;;4957351;28;20030;-74
2021/05/02 02:53:01;;;;;;;6.95;2.42;;;8.70;77.30;;;;;;4956705;28;20273;-74
2021/05/02 02:55:27;;;;;;;5.07;1.80;;;8.60;77.30;;;;;;4957011;28;20039;-75
2021/05/02 02:57:52;;;;;;;4.07;2.15;;;8.60;77.60;;;;;;4955235;28;20026;-75
2021/05/02 03:00:35;;;;;;;3.95;2.40;;;8.60;77.60;;;;;;4956917;29;20031;-75
2021/05/02 03:03:00;;;;;;;4.50;2.28;;;8.60;77.70;;;;;;4954976;29;20049;-75
2021/05/02 03:05:27;;;;;;;7.88;2.40;;;8.60;77.80;;;;;;4956689;28;20519;-75
2021/05/02 03:07:53;;;;;;;5.43;2.17;;;8.70;77.90;;;;;;4956135;28;20117;-75
2021/05/02 03:10:20;;;;;;;5.43;2.40;;;8.70;77.90;;;;;;4956657;28;20103;-75
2021/05/02 03:12:48;;;;;;;5.18;2.20;;;8.70;77.90;;;;;;4956503;28;20082;-75
2021/05/02 03:15:14;;;;;;;2.72;1.90;;;8.80;77.90;;;;;;4956551;28;20027;-75
2021/05/02 03:17:42;;;;;;;5.82;2.03;;;8.70;77.80;;;;;;4956140;28;20024;-75
2021/05/02 03:20:14;;;;;;;3.65;1.73;;;8.70;77.90;;;;;;4955414;28;20024;-75
2021/05/02 03:22:50;;;;;;;4.72;2.00;;;8.70;78.00;;;;;;4956094;28;20019;-74
2021/05/02 03:25:22;;;;;;;4.18;2.40;;;8.70;78.20;;;;;;4956535;28;20051;-74
2021/05/02 03:28:05;;;;;;;4.35;1.90;;;8.70;78.30;;;;;;4956101;28;20027;-74
2021/05/02 03:30:32;;;;;;;5.43;2.10;;;8.70;78.40;;;;;;4956697;28;20475;-75
2021/05/02 03:33:01;;;;;;;4.50;1.77;;;8.60;78.40;;;;;;4954378;29;20031;-75
2021/05/02 03:35:32;;;;;;;7.22;1.88;;;8.60;78.50;;;;;;4956477;28;20059;-74
2021/05/02 03:38:28;;;;;;;6.07;1.80;;;8.70;78.50;;;;;;4954406;29;20059;-75
2021/05/02 03:40:55;;;;;;;3.47;1.80;;;8.60;78.60;;;;;;4955961;28;20491;-75
2021/05/02 03:43:21;;;;;;;4.78;2.25;;;8.60;78.60;;;;;;4956112;28;20027;-75
2021/05/02 03:45:47;;;;;;;5.00;1.95;;;8.50;78.70;;;;;;4955683;28;20070;-74
2021/05/02 03:48:13;;;;;;;3.80;1.92;;;8.50;78.80;;;;;;4956022;29;20038;-74
2021/05/02 03:50:38;;;;;;;6.65;2.65;;;8.50;78.90;;;;;;4955956;28;20472;-75
2021/05/02 03:53:04;;;;;;;4.20;1.80;;;8.50;78.90;;;;;;4955388;28;20412;-75
2021/05/02 03:55:43;;;;;;;5.70;2.25;;;8.50;78.80;;;;;;4956322;28;20019;-75
2021/05/02 03:58:16;;;;;;;3.20;1.92;;;8.50;79.00;;;;;;4956354;28;20031;-75
2021/05/02 04:00:43;;;;;;;4.63;1.83;;;8.50;79.00;;;;;;4955538;28;20024;-75
2021/05/02 04:03:12;;;;;;;3.58;1.83;;;8.40;79.00;;;;;;4954771;28;20046;-75
2021/05/02 04:05:38;;;;;;;4.78;1.98;;;8.40;79.20;;;;;;4956008;28;20527;-75
2021/05/02 04:08:04;;;;;;;3.92;1.98;;;8.30;79.40;;;;;;4955630;28;20111;-74
2021/05/02 04:10:31;;;;;;;3.60;1.88;;;8.30;79.50;;;;;;4955806;28;20026;-75
2021/05/02 04:12:57;;;;;;;3.95;1.80;;;8.30;79.50;;;;;;4955371;28;20468;-74
2021/05/02 04:15:23;;;;;;;4.40;1.77;;;8.30;79.40;;;;;;4955688;28;20078;-74
2021/05/02 04:17:52;;;;;;;3.95;1.90;;;8.30;80.10;;;;;;4954870;28;20031;-74
2021/05/02 04:20:18;;;;;;;3.47;2.70;;;8.30;79.40;;;;;;4955672;29;20027;-75
2021/05/02 04:22:44;;;;;;;2.90;1.88;;;8.20;79.60;;;;;;4954981;28;20030;-75
2021/05/02 04:25:10;;;;;;;2.80;1.73;;;8.20;79.50;;;;;;4970404;28;20488;-75
2021/05/02 04:27:36;;;;;;;3.72;1.90;;;8.20;79.60;;;;;;4955645;28;20361;-76
2021/05/02 04:30:02;;;;;;;4.10;1.65;;;8.20;79.60;;;;;;4954868;28;20082;-75
2021/05/02 04:32:28;;;;;;;2.63;1.25;;;8.20;79.60;;;;;;4955457;28;20136;-74
2021/05/02 04:34:53;;;;;;;3.00;1.83;;;8.20;79.60;;;;;;4954513;29;20138;-74
2021/05/02 04:37:19;;;;;;;3.00;1.65;;;8.20;79.40;;;;;;4970157;28;20314;-75
2021/05/02 04:39:45;;;;;;;3.72;1.70;;;8.20;79.50;;;;;;4954747;28;20519;-75
2021/05/02 04:42:11;;;;;;;2.80;1.50;;;8.20;79.40;;;;;;4955227;29;20035;-74
2021/05/02 04:44:37;;;;;;;3.50;1.83;;;8.20;79.40;;;;;;4955241;28;20046;-75
2021/05/02 04:47:03;;;;;;;3.45;1.38;;;8.10;79.50;;;;;;4954603;29;20031;-74
2021/05/02 04:49:29;;;;;;;4.45;1.77;;;8.10;79.70;;;;;;4955253;28;20030;-75
2021/05/02 04:51:54;;;;;;;5.18;2.17;;;8.10;79.80;;;;;;4953038;28;20035;-75
2021/05/02 04:54:20;;;;;;;3.63;1.50;;;8.10;79.70;;;;;;4955015;28;20074;-74
2021/05/02 04:56:47;;;;;;;7.22;1.63;;;8.00;79.80;;;;;;4954478;28;20023;-75
2021/05/02 04:59:13;;;;;;;4.15;2.03;;;8.00;79.70;;;;;;4953206;28;20027;-75
2021/05/02 05:01:40;;;;;;;4.30;1.75;;;8.00;79.80;;;;;;4954867;29;20050;-74
2021/05/02 05:04:06;;;;;;;2.85;1.42;;;8.10;79.90;;;;;;4953930;28;20027;-75
2021/05/02 05:06:33;;;;;;;4.97;1.50;;;8.00;79.70;;;;;;4954981;28;20031;-75
2021/05/02 05:08:58;;;;;;;3.42;1.85;;;8.00;79.50;;;;;;4953942;28;20387;-75
2021/05/02 05:11:24;;;;;;;2.50;1.50;;;7.90;79.60;;;;;;4954483;29;20058;-74
2021/05/02 05:13:50;;;;;;;3.15;1.30;;;7.90;79.60;;;;;;4952808;29;20073;-75
2021/05/02 05:16:19;;;;;;;3.13;1.75;;;7.90;79.60;;;;;;4953314;28;20082;-75
2021/05/02 05:18:44;;;;;;;4.03;1.88;;;7.90;79.80;;;;;;4954845;29;20027;-75
2021/05/02 05:21:10;;;;;;;2.97;1.85;;;7.90;79.50;;;;;;4953982;29;20030;-76
2021/05/02 05:23:36;;;;;;;2.97;1.48;;;7.90;79.50;;;;;;4969949;28;20110;-74
2021/05/02 05:26:01;;;;;;;4.18;2.03;;;7.90;79.60;;;;;;4968869;28;20106;-76
2021/05/02 05:28:27;;;;;;;4.30;1.73;;;7.90;79.70;;;;;;4954915;29;20053;-75
2021/05/02 05:30:54;;;;;;;2.10;1.40;;;8.00;79.70;;;;;;4954441;28;20019;-75
2021/05/02 05:33:21;;;;;;;3.40;1.48;;;8.00;79.70;;;;;;4953338;29;20031;-75
2021/05/02 05:35:46;;;;;;;3.17;1.90;;;8.00;79.60;;;;;;4954448;28;20500;-75
2021/05/02 05:38:13;;;;;;;5.07;1.90;;;8.10;79.60;;;;;;4953732;28;20037;-75
2021/05/02 05:40:39;;;;;;;3.17;1.40;;;8.10;79.60;;;;;;4954212;28;20026;-76
2021/05/02 05:43:05;;;;;;;2.13;1.52;;;8.10;79.60;;;;;;4953423;28;20050;-76
2021/05/02 05:45:32;;;;;;;3.00;1.50;;;8.10;79.50;;;;;;4953018;28;20121;-75
2021/05/02 05:47:59;;;;;;;3.30;1.77;;;8.10;79.50;;;;;;4952218;29;20027;-75
2021/05/02 05:50:26;;;;;;;3.30;1.80;;;8.10;79.70;;;;;;4954169;28;20457;-75
2021/05/02 05:52:52;;;;;;;3.53;1.92;;;8.10;79.80;;;;;;4953625;28;20476;-75
2021/05/02 05:55:19;;;;;;;4.88;2.00;;;8.10;79.60;;;;;;4952838;28;20551;-75
2021/05/02 05:57:46;;;;;;;5.30;2.15;;;8.20;79.90;;;;;;4953706;28;20121;-75
2021/05/02 06:00:13;;;;;;;3.83;2.25;;;8.20;79.70;;;;;;4953457;28;20055;-75
2021/05/02 06:02:39;;;;;;;2.15;1.63;;;8.10;79.50;;;;;;4953991;28;20078;-75
2021/05/02 06:05:05;;;;;;;3.15;1.75;;;8.10;79.70;;;;;;4953094;29;20027;-75
2021/05/02 06:07:31;;;;;;;4.35;2.60;;;8.20;79.70;;;;;;4953984;28;20061;-76
2021/05/02 06:09:57;;;;;;;4.90;1.40;;;8.20;79.70;;;;;;4952516;28;20035;-75
2021/05/02 06:12:22;;;;;;;3.15;1.45;;;8.20;79.70;;;;;;4952591;28;20051;-75
2021/05/02 06:14:48;;;;;;;3.95;2.08;;;8.30;79.50;;;;;;4952499;28;20382;-74
2021/05/02 06:17:15;;;;;;;6.28;1.50;;;8.30;79.60;;;;;;4952916;28;20039;-75
2021/05/02 06:19:40;;;;;;;2.38;1.13;;;8.30;79.60;;;;;;4953782;28;20122;-75
2021/05/02 06:22:06;;;;;;;1.80;1.40;;;8.40;79.70;;;;;;4953233;29;20063;-74
2021/05/02 06:24:32;;;;;;;2.65;1.45;;;8.40;79.60;;;;;;4953432;28;20028;-75
2021/05/02 06:26:58;;;;;;;3.83;1.77;;;8.50;79.70;;;;;;4967904;28;20024;-75
2021/05/02 06:29:24;;;;;;;1.30;1.15;;;8.50;79.30;;;;;;4952306;28;20055;-75
2021/05/02 06:31:50;;;;;;;8.02;1.38;;;8.40;78.70;;;;;;4953712;28;20023;-75
2021/05/02 06:34:15;;;;;;;2.78;1.55;;;8.40;78.40;;;;;;4953327;29;20452;-74
2021/05/02 06:36:42;;;;;;;2.90;1.55;;;8.40;78.60;;;;;;4953274;29;20032;-75
2021/05/02 06:39:08;;;;;;;2.35;1.08;;;8.50;78.80;;;;;;4953000;28;20027;-75
2021/05/02 06:41:36;;;;;;;3.60;1.33;;;8.50;78.10;;;;;;4952353;28;20031;-74
2021/05/02 06:44:02;;;;;;;1.67;1.00;;;8.60;78.60;;;;;;4953099;28;20019;-75
2021/05/02 06:46:29;;;;;;;1.38;1.05;;;8.60;78.00;;;;;;4953527;28;20031;-75
2021/05/02 06:48:56;;;;;;;3.15;1.33;;;8.70;77.70;;;;;;4952591;28;20392;-76
2021/05/02 06:51:23;;;;;;;3.35;1.63;;;8.70;77.60;;;;;;4953295;28;20106;-75
2021/05/02 06:53:48;;;;;;;2.28;1.35;;;8.80;77.20;;;;;;4953259;28;20028;-75
2021/05/02 06:56:14;;;;;;;2.22;1.20;;;8.80;76.30;;;;;;4952854;28;20023;-75
2021/05/02 06:58:40;;;;;;;1.45;1.13;;;8.80;75.80;;;;;;4953204;28;20038;-76
2021/05/02 07:01:05;;;;;;;0.98;0.80;;;8.80;75.70;;;;;;4951126;28;20031;-75
2021/05/02 07:03:31;;;;;;;3.75;1.10;;;8.90;75.60;;;;;;4952045;29;20020;-75
2021/05/02 07:05:58;;;;;;;5.18;1.27;;;8.90;74.80;;;;;;4951378;28;20027;-75
2021/05/02 07:08:24;;;;;;;3.08;1.33;;;9.00;74.90;;;;;;4953733;28;20058;-75
2021/05/02 07:10:50;;;;;;;2.83;1.52;;;9.00;74.60;;;;;;4952927;28;20392;-75
2021/05/02 07:13:15;;;;;;;3.08;1.20;;;9.10;73.60;;;;;;4952730;28;20028;-74
2021/05/02 07:15:41;;;;;;;5.38;1.00;;;9.10;73.70;;;;;;4953100;28;20027;-74
2021/05/02 07:18:07;;;;;;;2.78;0.90;;;9.20;73.20;;;;;;4951400;29;20547;-73
2021/05/02 07:20:33;;;;;;;2.35;1.20;;;9.20;73.00;;;;;;4953225;28;20030;-75
2021/05/02 07:22:59;;;;;;;1.58;0.80;;;9.30;72.70;;;;;;4955868;28;20027;-76
2021/05/02 07:25:26;;;;;;;2.33;2.03;;;9.40;72.50;;;;;;4957011;28;20027;-75
2021/05/02 07:27:53;;;;;;;3.28;1.20;;;9.40;71.40;;;;;;4955389;29;20030;-75
2021/05/02 07:30:23;;;;;;;1.25;0.80;;;9.40;71.30;;;;;;4955886;28;20475;-75
2021/05/02 07:32:49;;;;;;;1.08;0.75;;;9.50;70.80;;;;;;4956436;28;20329;-75
2021/05/02 07:35:15;;;;;;;2.03;1.20;;;9.60;70.70;;;;;;4954595;29;20034;-74
2021/05/02 07:37:41;;;;;;;2.88;0.93;;;9.70;70.00;;;;;;4955208;28;20027;-75
2021/05/02 07:40:08;;;;;;;1.60;0.82;;;9.80;69.00;;;;;;4954617;28;20038;-74
2021/05/02 07:42:34;;;;;;;6.13;1.00;;;9.80;68.40;;;;;;4956161;28;20376;-74
2021/05/02 07:45:01;;;;;;;0.93;0.82;;;9.90;68.50;;;;;;4954522;28;20027;-74
2021/05/02 07:47:26;;;;;;;0.65;0.65;;;9.80;67.90;;;;;;4956174;28;20101;-75
2021/05/02 07:49:52;;;;;;;2.70;0.82;;;9.80;67.90;;;;;;4956464;28;20464;-75
2021/05/02 07:52:18;;;;;;;0.80;0.80;;;9.70;67.50;;;;;;4955859;28;20558;-75
2021/05/02 07:54:44;;;;;;;1.45;0.68;;;9.70;67.40;;;;;;4956631;28;20464;-75
2021/05/02 07:57:10;;;;;;;2.95;0.82;;;9.70;67.20;;;;;;4956244;28;20038;-75
2021/05/02 07:59:39;;;;;;;2.47;0.98;;;9.70;67.10;;;;;;4956237;28;20027;-74
2021/05/02 08:02:11;;;;;;;0.85;0.70;;;9.80;67.90;;;;;;4955443;28;20037;-76
2021/05/02 08:04:40;;;;;;;0.90;0.90;;;10.00;66.50;;;;;;4955203;29;20090;-76
2021/05/02 08:07:08;;;;;;;2.17;0.90;;;9.90;65.70;;;;;;4955615;28;20038;-75
2021/05/02 08:09:35;;;;;;;1.70;0.63;;;10.00;65.30;;;;;;4955956;28;20477;-76
2021/05/02 08:12:01;;;;;;;2.78;1.10;;;10.00;64.80;;;;;;4955356;28;20071;-75
2021/05/02 08:14:28;;;;;;;3.47;0.85;;;10.00;64.20;;;;;;4956118;28;20038;-74
2021/05/02 08:16:54;;;;;;;1.60;0.80;;;10.00;64.20;;;;;;4955662;28;20095;-75
2021/05/02 08:19:20;;;;;;;6.38;0.70;;;10.10;63.10;;;;;;4955329;28;20393;-74
2021/05/02 08:21:45;;;;;;;2.13;1.35;;;10.20;62.60;;;;;;4954620;29;20110;-75
2021/05/02 08:24:12;;;;;;;0.85;0.70;;;10.30;62.20;;;;;;4955082;28;20034;-75
2021/05/02 08:26:39;;;;;;;1.15;0.70;;;10.40;61.70;;;;;;4955854;28;20027;-75
2021/05/02 08:29:05;;;;;;;1.13;0.70;;;10.40;61.90;;;;;;4955333;28;20432;-76
2021/05/02 08:31:30;;;;;;;4.15;0.85;;;10.50;61.70;;;;;;4955719;28;20058;-76
2021/05/02 08:33:56;;;;;;;0.80;0.70;;;10.40;61.50;;;;;;4953201;28;20057;-76
2021/05/02 08:36:23;;;;;;;2.70;0.80;;;10.30;62.10;;;;;;4953830;29;20042;-76
2021/05/02 08:38:49;;;;;;;2.15;0.70;;;10.30;62.80;;;;;;4955796;28;20027;-76
2021/05/02 08:41:15;;;;;;;0.60;0.60;;;10.30;62.70;;;;;;4954916;28;20026;-76
2021/05/02 08:43:41;;;;;;;0.50;0.50;;;10.20;61.80;;;;;;4955118;28;20031;-76
2021/05/02 08:46:09;;;;;;;1.55;0.68;;;10.30;61.70;;;;;;4953625;28;20037;-75
2021/05/02 08:48:35;;;;;;;0.60;0.60;;;10.40;61.60;;;;;;4955635;28;20033;-77
2021/05/02 08:51:01;;;;;;;1.33;0.52;;;10.50;61.40;;;;;;4955681;28;20090;-75
2021/05/02 08:53:27;;;;;;;0.85;0.70;;;10.60;61.10;;;;;;4953403;29;20019;-77
2021/05/02 08:55:54;;;;;;;0.90;0.50;;;10.60;60.30;;;;;;4955500;28;20102;-76
2021/05/02 08:58:22;;;;;;;0.95;0.60;;;10.70;60.30;;;;;;4953660;28;20039;-76
2021/05/02 09:00:49;;;;;;;1.05;0.60;;;10.80;59.60;;;;;;4954056;29;20038;-76
2021/05/02 09:03:15;;;;;;;1.30;1.00;;;10.80;59.70;;;;;;4953174;28;20111;-76
2021/05/02 09:05:45;;;;;;;2.50;1.10;;;10.80;59.00;;;;;;4954882;28;20388;-76
2021/05/02 09:08:29;;;;;;;1.45;1.23;;;10.70;59.20;;;;;;4953246;28;20023;-75
2021/05/02 09:10:55;;;;;;;1.50;0.57;;;10.70;59.10;;;;;;4954379;28;20059;-76
2021/05/02 09:13:21;;;;;;;1.88;1.10;;;10.60;59.50;;;;;;4952992;28;20118;-76
2021/05/02 09:15:59;;;;;;;0.40;0.40;;;10.60;59.40;;;;;;4955090;28;20058;-77
2021/05/02 09:18:33;;;;;;;1.60;0.60;;;10.70;58.30;;;;;;4954566;28;20109;-76
2021/05/02 09:20:59;;;;;;;1.15;0.68;;;10.80;57.40;;;;;;4953753;29;20357;-76
2021/05/02 09:23:35;;;;;;;0.68;0.60;;;10.80;57.50;;;;;;4954474;28;20389;-75
2021/05/02 09:26:00;;;;;;;1.02;0.57;;;11.10;57.10;;;;;;4953384;29;20055;-76
2021/05/02 09:28:46;;;;;;;0.90;0.50;;;11.10;57.10;;;;;;4953846;28;20054;-76
2021/05/02 09:31:23;;;;;;;1.15;0.73;;;11.20;57.50;;;;;;4953983;28;20098;-77
2021/05/02 09:33:50;;;;;;;0.60;0.60;;;11.30;56.40;;;;;;4953292;29;20439;-76
2021/05/02 09:36:17;;;;;;;1.92;0.65;;;11.30;55.60;;;;;;4952533;29;20114;-76
2021/05/02 09:38:43;;;;;;;0.65;0.55;;;11.40;55.40;;;;;;4954565;28;20110;-76
2021/05/02 09:41:12;;;;;;;0.50;0.50;;;11.50;56.00;;;;;;4952483;28;20460;-76
2021/05/02 09:43:45;;;;;;;1.80;0.50;;;11.60;55.80;;;;;;4953280;29;20031;-76
2021/05/02 09:46:29;;;;;;;0.82;0.68;;;11.60;55.10;;;;;;4952557;28;20114;-75
2021/05/02 09:49:01;;;;;;;0.95;0.82;;;11.60;54.70;;;;;;4954507;28;20527;-75
2021/05/02 09:51:30;;;;;;;0.75;0.50;;;11.60;54.30;;;;;;4953928;28;20041;-76
2021/05/02 09:54:15;;;;;;;0.98;0.60;;;11.70;54.30;;;;;;4954334;28;20467;-75
2021/05/02 09:56:52;;;;;;;1.20;0.63;;;11.80;54.30;;;;;;4954278;28;20042;-76
2021/05/02 09:59:27;;;;;;;0.73;0.52;;;11.80;54.30;;;;;;4952338;29;20472;-77
2021/05/02 10:02:11;;;;;;;0.73;0.57;;;11.80;54.70;;;;;;4954192;28;20392;-76
2021/05/02 10:04:44;;;;;;;0.55;0.50;;;11.80;55.10;;;;;;4954605;28;20473;-75
2021/05/02 10:07:11;;;;;;;0.55;0.50;;;11.70;54.90;;;;;;4952504;29;20054;-76
2021/05/02 10:09:37;;;;;;;1.77;0.90;;;11.70;55.70;;;;;;4952899;29;20085;-76
2021/05/02 10:12:04;;;;;;;0.60;0.50;;;11.70;55.90;;;;;;4952651;28;20444;-76
2021/05/02 10:14:32;;;;;;;0.65;0.55;;;11.70;56.20;;;;;;4953494;28;20110;-75
2021/05/02 10:16:57;;;;;;;0.80;0.60;;;11.70;55.90;;;;;;4953856;28;20039;-75
2021/05/02 10:19:23;;;;;;;0.73;0.50;;;11.70;56.10;;;;;;4953361;28;20102;-76
2021/05/02 10:21:50;;;;;;;2.80;0.70;;;11.80;56.60;;;;;;4953930;28;20468;-76
2021/05/02 10:24:16;;;;;;;0.60;0.60;;;11.80;56.50;;;;;;4953251;28;20078;-77
2021/05/02 10:26:42;;;;;;;0.45;0.45;;;11.80;56.00;;;;;;4953768;28;20038;-77
2021/05/02 10:29:08;;;;;;;0.40;0.40;;;11.70;55.60;;;;;;4956756;28;20027;-76
2021/05/02 10:31:40;;;;;;;0.57;0.50;;;11.70;54.80;;;;;;4952596;28;20117;-76
2021/05/02 10:34:27;;;;;;;1.58;0.73;;;11.60;55.10;;;;;;4953223;28;20028;-77
2021/05/02 10:37:25;;;;;;;0.65;0.52;;;11.60;54.50;;;;;;4953354;28;20036;-76
2021/05/02 10:40:08;;;;;;;2.60;0.45;;;11.50;55.20;;;;;;4952365;28;20086;-77
2021/05/02 10:42:50;;;;;;;0.93;0.50;;;11.60;55.50;;;;;;4953019;28;20073;-77
2021/05/02 10:45:27;;;;;;;0.75;0.63;;;11.70;55.10;;;;;;4953033;28;20024;-76
2021/05/02 10:47:54;;;;;;;0.52;0.50;;;11.70;55.10;;;;;;4944170;28;20039;-80
2021/05/02 10:50:27;;;;;;;0.68;0.47;;;11.70;54.70;;;;;;4950409;28;20043;-78
2021/05/02 10:53:14;;;;;;;1.42;0.50;;;11.70;54.30;;;;;;4957764;28;20027;-77
2021/05/02 10:55:48;;;;;;;0.50;0.50;;;11.80;54.00;;;;;;4950830;28;20022;-78
2021/05/02 10:58:22;;;;;;;1.73;0.75;;;11.90;54.10;;;;;;4960336;28;20114;-79
2021/05/02 11:01:08;;;;;;;0.40;0.40;;;12.00;54.00;;;;;;4959784;28;20113;-81
2021/05/02 11:03:39;;;;;;;0.45;0.45;;;12.00;53.30;;;;;;4956896;28;20094;-80
2021/05/02 11:06:13;;;;;;;0.40;0.40;;;12.00;52.70;;;;;;4952618;28;20107;-82
2021/05/02 11:08:46;;;;;;;0.35;0.35;;;12.10;51.90;;;;;;4969995;28;20037;-84
2021/05/02 11:11:37;;;;;;;1.38;0.98;;;12.30;51.20;;;;;;4962911;28;20046;-81
2021/05/02 11:16:35;;;;;;;0.52;0.50;;;12.80;50.60;;;;;;4957133;28;20032;-80
2021/05/02 11:19:01;;;;;;;0.95;0.70;;;13.10;50.30;;;;;;4952407;28;20123;-80
2021/05/02 11:21:52;;;;;;;0.40;0.40;;;13.20;49.90;;;;;;4954265;28;20453;-80
2021/05/02 11:24:48;;;;;;;0.63;0.55;;;13.20;49.40;;;;;;4950943;28;20356;-83
2021/05/02 11:27:25;;;;;;;0.40;0.40;;;13.10;49.20;;;;;;4952417;28;20467;-84
2021/05/02 11:30:03;;;;;;;1.27;0.68;;;13.00;50.00;;;;;;4954358;28;20039;-81
2021/05/02 11:32:29;;;;;;;0.93;0.50;;;12.90;49.60;;;;;;4953198;28;20110;-82
2021/05/02 11:35:02;;;;;;;1.75;1.38;;;12.80;49.80;;;;;;4957283;28;20117;-80
2021/05/02 11:37:39;;;;;;;0.73;0.70;;;12.70;50.10;;;;;;4954541;28;20040;-80
2021/05/02 11:40:24;;;;;;;1.15;0.60;;;12.70;50.80;;;;;;4955855;28;20024;-80
2021/05/02 11:43:01;;;;;;;1.20;0.60;;;12.80;50.70;;;;;;4962820;28;20102;-80
2021/05/02 11:45:39;;;;;;;1.80;0.85;;;12.90;50.40;;;;;;4959423;28;20054;-78
2021/05/02 11:48:07;;;;;;;1.45;0.60;;;12.90;50.70;;;;;;4959077;28;20104;-79
2021/05/02 11:50:43;;;;;;;0.73;0.50;;;12.90;51.10;;;;;;4944871;28;20510;-80
2021/05/02 11:53:09;;;;;;;0.85;0.60;;;12.90;50.70;;;;;;4961391;28;20050;-80
2021/05/02 11:55:39;;;;;;;2.47;0.65;;;12.90;50.50;;;;;;4961773;28;20031;-78
2021/05/02 11:58:12;;;;;;;0.40;0.40;;;12.90;49.90;;;;;;4963018;28;20023;-79
2021/05/02 12:00:42;;;;;;;0.63;0.57;;;12.90;50.30;;;;;;4964336;28;20451;-79
2021/05/02 12:03:13;;;;;;;0.88;0.60;;;12.80;50.30;;;;;;4961649;28;20031;-79
2021/05/02 12:05:52;;;;;;;0.80;0.50;;;12.70;50.70;;;;;;4958474;28;20034;-80
2021/05/02 12:08:22;;;;;;;1.15;0.60;;;12.70;50.60;;;;;;4965293;28;20030;-81
2021/05/02 12:10:56;;;;;;;1.40;1.00;;;12.60;50.70;;;;;;4966865;28;20082;-80
2021/05/02 12:13:40;;;;;;;0.45;0.45;;;12.60;51.20;;;;;;4962159;28;20055;-81
2021/05/02 12:16:10;;;;;;;0.60;0.50;;;12.70;50.80;;;;;;4964226;28;20031;-80
2021/05/02 12:18:48;;;;;;;0.57;0.57;;;12.80;51.00;;;;;;4963456;28;20050;-81
2021/05/02 12:21:18;;;;;;;1.10;0.60;;;13.10;51.30;;;;;;4963034;28;20467;-81
2021/05/02 12:23:45;;;;;;;0.50;0.50;;;13.30;51.80;;;;;;4965370;28;20034;-80
2021/05/02 12:26:13;;;;;;;1.52;0.95;;;13.60;51.60;;;;;;4952345;28;20480;-81
2021/05/02 12:28:39;;;;;;;0.77;0.77;;;13.70;50.10;;;;;;4965878;28;20453;-81
2021/05/02 12:31:07;;;;;;;0.90;0.50;;;13.70;50.10;;;;;;4967445;28;20383;-81
2021/05/02 12:33:37;;;;;;;0.50;0.50;;;13.70;48.80;;;;;;4962279;28;20027;-82
2021/05/02 12:36:05;;;;;;;2.10;0.60;;;13.70;47.80;;;;;;4963166;28;20027;-84
2021/05/02 12:38:31;;;;;;;2.85;0.50;;;13.70;48.10;;;;;;4959236;28;20039;-81
2021/05/02 12:40:57;;;;;;;0.70;0.52;;;13.90;48.20;;;;;;4969111;28;20443;-82
2021/05/02 12:43:25;;;;;;;0.77;0.60;;;14.10;47.60;;;;;;4956590;28;20074;-81
2021/05/02 12:45:51;;;;;;;2.05;0.65;;;14.20;47.10;;;;;;4967379;28;20041;-80
2021/05/02 12:48:36;;;;;;;0.80;0.50;;;14.40;47.20;;;;;;4964945;28;20023;-80
2021/05/02 12:51:03;;;;;;;0.70;0.60;;;14.40;46.80;;;;;;4955770;28;20435;-81
2021/05/02 12:53:40;;;;;;;0.75;0.47;;;14.20;47.20;;;;;;4944244;28;20079;-80
2021/05/02 12:56:06;;;;;;;1.15;0.60;;;14.00;48.50;;;;;;4956109;28;20641;-80
2021/05/02 12:58:35;;;;;;;0.90;0.50;;;13.80;49.10;;;;;;4950856;28;20062;-83
2021/05/02 13:01:08;;;;;;;0.77;0.40;;;13.60;48.80;;;;;;4953106;28;20435;-81
2021/05/02 13:03:46;;;;;;;1.10;0.55;;;13.50;49.20;;;;;;4948559;28;20019;-79
2021/05/02 13:06:16;;;;;;;0.95;0.60;;;13.50;49.00;;;;;;4950700;28;20129;-82